Time;durP1;ratioP1;P1;durP2;ratioP2;P2;SDS_P1;SDS_P2;PMS_P1;PMS_P2;Temp;Humidity;BMP_temperature;BMP_pressure;BME280_temperature;BME280_humidity;BME280_pressure;Samples;Min_cycle;Max_cycle;Signal;HPM_P1;HPM_P2
2022/10/24 00:00:32;;;;;;;20.27;5.05;;;14.80;99.90;;;;;;5037154;28;20055;-64
2022/10/24 00:02:58;;;;;;;18.20;4.70;;;14.80;99.90;;;;;;5039597;28;20037;-64
2022/10/24 00:05:24;;;;;;;22.95;4.78;;;14.80;99.90;;;;;;5045713;28;20037;-64
2022/10/24 00:07:50;;;;;;;17.80;4.60;;;14.80;99.90;;;;;;5036009;28;20068;-65
2022/10/24 00:10:17;;;;;;;17.83;4.93;;;14.80;99.90;;;;;;5042023;28;20033;-64
2022/10/24 00:12:43;;;;;;;21.20;4.20;;;14.80;99.90;;;;;;5040067;28;20037;-64
2022/10/24 00:15:09;;;;;;;18.70;4.68;;;14.80;99.90;;;;;;5040028;28;20063;-64
2022/10/24 00:17:34;;;;;;;16.80;4.22;;;14.90;99.90;;;;;;5035089;28;20099;-64
2022/10/24 00:20:00;;;;;;;16.30;4.40;;;14.80;99.90;;;;;;5032183;28;20140;-64
2022/10/24 00:22:27;;;;;;;21.45;4.75;;;14.80;99.90;;;;;;5071488;28;20072;-64
2022/10/24 00:24:52;;;;;;;21.52;4.72;;;14.80;99.90;;;;;;5068077;28;20122;-64
2022/10/24 00:27:18;;;;;;;15.65;4.25;;;14.80;99.90;;;;;;5036551;28;20315;-64
2022/10/24 00:29:44;;;;;;;22.60;4.53;;;14.80;99.90;;;;;;5066440;28;20098;-64
2022/10/24 00:32:10;;;;;;;21.08;4.72;;;14.80;99.90;;;;;;5037413;28;20048;-64
2022/10/24 00:34:36;;;;;;;18.85;4.68;;;14.70;99.90;;;;;;5036803;28;20036;-64
2022/10/24 00:37:02;;;;;;;19.13;4.28;;;14.60;99.90;;;;;;5036253;28;20052;-64
2022/10/24 00:39:27;;;;;;;20.95;4.60;;;14.60;99.90;;;;;;5067649;28;20037;-64
2022/10/24 00:41:55;;;;;;;18.92;4.80;;;14.60;99.90;;;;;;5068497;28;20487;-64
2022/10/24 00:44:29;;;;;;;19.52;5.15;;;14.60;99.90;;;;;;5035679;28;20040;-64
2022/10/24 00:47:12;;;;;;;17.15;5.13;;;14.60;99.90;;;;;;5035615;28;20481;-63
2022/10/24 00:49:49;;;;;;;15.55;5.20;;;14.70;99.90;;;;;;5030493;28;20080;-64
2022/10/24 00:52:22;;;;;;;22.58;5.47;;;14.60;99.90;;;;;;5035027;28;20049;-63
2022/10/24 00:54:49;;;;;;;22.88;5.93;;;14.70;99.90;;;;;;5036347;28;20484;-64
2022/10/24 00:57:55;;;;;;;25.60;6.43;;;14.60;99.90;;;;;;5033186;28;20045;-64
2022/10/24 01:00:25;;;;;;;23.95;6.18;;;14.60;99.90;;;;;;5015533;28;20454;-65
2022/10/24 01:02:52;;;;;;;33.45;7.45;;;14.70;99.90;;;;;;5012904;28;20052;-64
2022/10/24 01:05:20;;;;;;;28.40;7.57;;;14.70;99.90;;;;;;5036367;28;20083;-64
2022/10/24 01:08:12;;;;;;;29.70;7.65;;;14.70;99.90;;;;;;5037978;28;20325;-64
2022/10/24 01:11:16;;;;;;;27.67;7.70;;;14.80;99.90;;;;;;5038180;28;20692;-65
2022/10/24 01:13:54;;;;;;;26.77;7.40;;;14.80;99.90;;;;;;5023565;28;20598;-64
2022/10/24 01:16:46;;;;;;;29.05;7.70;;;14.80;99.90;;;;;;5036825;28;20057;-64
2022/10/24 01:19:59;;;;;;;40.03;9.50;;;14.80;99.90;;;;;;5039952;28;20049;-64
2022/10/24 01:22:33;;;;;;;33.22;7.70;;;14.80;99.90;;;;;;5066411;28;20068;-64
2022/10/24 01:25:05;;;;;;;39.85;7.70;;;14.70;99.90;;;;;;5039351;28;20056;-66
2022/10/24 01:27:52;;;;;;;31.73;7.20;;;14.60;99.90;;;;;;5059430;28;20049;-64
2022/10/24 01:30:18;;;;;;;27.77;7.78;;;14.60;99.90;;;;;;5033809;28;20488;-64
2022/10/24 01:33:01;;;;;;;26.05;7.57;;;14.60;99.90;;;;;;5035542;28;20108;-64
2022/10/24 01:35:48;;;;;;;;;;;14.60;99.90;;;;;;5036987;28;20490;-64
2022/10/24 01:38:41;;;;;;;29.58;7.40;;;14.50;99.90;;;;;;5037551;28;19921;-63
2022/10/24 01:41:16;;;;;;;29.58;7.70;;;14.50;99.90;;;;;;5043745;28;20506;-64
2022/10/24 01:44:14;;;;;;;24.25;7.13;;;14.50;99.90;;;;;;5036645;28;20455;-64
2022/10/24 01:46:44;;;;;;;30.23;7.75;;;14.40;99.90;;;;;;5030060;28;20053;-64
2022/10/24 01:49:18;;;;;;;28.73;7.57;;;14.40;99.90;;;;;;5036043;28;20138;-64
2022/10/24 01:51:46;;;;;;;21.65;6.65;;;14.40;99.90;;;;;;5039567;28;20092;-64
2022/10/24 01:54:12;;;;;;;29.35;6.97;;;14.50;99.90;;;;;;5033714;28;20042;-64
2022/10/24 01:56:37;;;;;;;28.67;7.22;;;14.40;99.90;;;;;;5041330;28;20044;-64
2022/10/24 01:59:27;;;;;;;33.22;7.20;;;14.40;99.90;;;;;;5068496;28;20426;-64
2022/10/24 02:02:18;;;;;;;25.52;7.32;;;14.50;99.90;;;;;;5038894;28;20056;-63
2022/10/24 02:04:55;;;;;;;24.63;6.35;;;14.40;99.90;;;;;;5051595;28;20151;-64
2022/10/24 02:07:22;;;;;;;31.10;7.40;;;14.40;99.90;;;;;;5045557;28;20045;-65
2022/10/24 02:09:53;;;;;;;28.52;7.28;;;14.40;99.90;;;;;;5042313;28;20127;-64
2022/10/24 02:12:22;;;;;;;28.08;7.47;;;14.30;99.90;;;;;;5069848;28;20037;-64
2022/10/24 02:14:53;;;;;;;35.25;7.30;;;14.30;99.90;;;;;;5029762;28;20657;-64
2022/10/24 02:17:18;;;;;;;30.13;6.88;;;14.30;99.90;;;;;;5037759;28;20041;-64
2022/10/24 02:19:45;;;;;;;23.92;6.70;;;14.20;99.90;;;;;;5070888;28;20043;-63
2022/10/24 02:22:55;;;;;;;34.05;7.50;;;14.30;99.90;;;;;;5035797;28;20094;-64
2022/10/24 02:25:26;;;;;;;23.58;7.03;;;14.30;99.90;;;;;;5020397;28;20063;-63
2022/10/24 02:28:09;;;;;;;33.40;7.32;;;14.20;99.90;;;;;;5039287;28;20122;-64
2022/10/24 02:30:41;;;;;;;19.70;6.88;;;14.20;99.90;;;;;;5035222;28;20052;-64
2022/10/24 02:33:08;;;;;;;26.63;7.13;;;14.20;99.90;;;;;;5069930;28;20040;-64
2022/10/24 02:35:38;;;;;;;24.83;7.10;;;14.30;99.90;;;;;;5066690;28;20060;-64
2022/10/24 02:38:11;;;;;;;27.60;6.75;;;14.30;99.90;;;;;;5039578;28;20182;-64
2022/10/24 02:40:37;;;;;;;23.25;6.88;;;14.40;99.90;;;;;;5035055;28;20045;-65
2022/10/24 02:43:04;;;;;;;26.90;8.13;;;14.30;99.90;;;;;;5037426;28;20033;-63
2022/10/24 02:45:31;;;;;;;27.70;7.35;;;14.30;99.90;;;;;;5033985;28;20385;-64
2022/10/24 02:48:02;;;;;;;24.13;6.88;;;14.20;99.90;;;;;;5036693;28;20041;-64
2022/10/24 02:50:28;;;;;;;28.10;7.07;;;14.20;99.90;;;;;;5067642;28;20044;-64
2022/10/24 02:52:54;;;;;;;20.60;6.35;;;14.30;99.90;;;;;;5037049;28;20089;-64
2022/10/24 02:55:19;;;;;;;24.75;6.82;;;14.40;99.90;;;;;;5036452;28;20209;-63
2022/10/24 02:57:45;;;;;;;29.40;7.05;;;14.30;99.90;;;;;;5035688;28;20045;-64
2022/10/24 03:00:11;;;;;;;30.08;7.43;;;14.50;99.90;;;;;;5038771;28;20488;-65
2022/10/24 03:02:36;;;;;;;21.77;7.28;;;14.50;99.90;;;;;;5021920;28;20087;-64
2022/10/24 03:05:02;;;;;;;27.35;7.70;;;14.50;99.90;;;;;;5035196;28;20392;-64
2022/10/24 03:07:28;;;;;;;32.75;7.55;;;14.50;99.90;;;;;;5063238;28;20068;-65
2022/10/24 03:09:53;;;;;;;27.45;7.88;;;14.50;99.90;;;;;;5036005;28;20116;-63
2022/10/24 03:12:19;;;;;;;30.52;7.63;;;14.50;99.90;;;;;;5068271;28;20045;-64
2022/10/24 03:14:45;;;;;;;26.98;7.78;;;14.50;99.90;;;;;;5064785;28;20033;-64
2022/10/24 03:17:10;;;;;;;37.33;7.85;;;14.50;99.90;;;;;;5036537;28;20134;-64
2022/10/24 03:19:37;;;;;;;20.23;7.45;;;14.40;99.90;;;;;;5068706;28;20063;-64
2022/10/24 03:22:03;;;;;;;29.92;7.78;;;14.40;99.90;;;;;;5033083;28;20045;-63
2022/10/24 03:24:28;;;;;;;29.80;8.30;;;14.40;99.90;;;;;;5069729;28;20091;-64
2022/10/24 03:26:54;;;;;;;25.23;8.05;;;14.40;99.90;;;;;;5039230;28;20060;-63
2022/10/24 03:29:20;;;;;;;33.90;8.50;;;14.50;99.90;;;;;;5033987;28;20538;-64
2022/10/24 03:31:46;;;;;;;38.03;8.50;;;14.50;99.90;;;;;;5034836;28;20147;-64
2022/10/24 03:34:11;;;;;;;26.67;8.20;;;14.50;99.90;;;;;;5036094;28;20032;-64
2022/10/24 03:36:37;;;;;;;30.08;8.05;;;14.40;99.90;;;;;;5070956;28;20603;-63
2022/10/24 03:39:03;;;;;;;25.80;7.50;;;14.40;99.90;;;;;;5067732;28;20041;-64
2022/10/24 03:41:28;;;;;;;24.42;8.10;;;14.50;99.90;;;;;;5065723;28;20504;-64
2022/10/24 03:43:54;;;;;;;22.73;7.53;;;14.40;99.90;;;;;;5037825;28;20066;-64
2022/10/24 03:46:19;;;;;;;25.60;8.27;;;14.40;99.90;;;;;;5034513;28;20041;-65
2022/10/24 03:48:45;;;;;;;27.38;8.02;;;14.30;99.90;;;;;;5039663;28;20030;-64
2022/10/24 03:51:11;;;;;;;24.77;7.20;;;14.40;99.90;;;;;;5037342;28;20520;-64
2022/10/24 03:53:36;;;;;;;28.17;7.40;;;14.30;99.90;;;;;;5066762;28;20047;-64
2022/10/24 03:56:02;;;;;;;33.53;8.20;;;14.40;99.90;;;;;;5066320;28;20122;-64
2022/10/24 03:58:28;;;;;;;27.48;7.13;;;14.40;99.90;;;;;;5011715;28;20069;-64
2022/10/24 04:00:57;;;;;;;23.88;7.45;;;14.30;99.90;;;;;;5029867;28;20140;-64
2022/10/24 04:03:23;;;;;;;27.58;6.78;;;14.40;99.90;;;;;;5036093;28;20111;-65
2022/10/24 04:05:48;;;;;;;36.50;7.75;;;14.40;99.90;;;;;;5036862;28;20379;-63
2022/10/24 04:08:14;;;;;;;23.30;6.95;;;14.30;99.90;;;;;;5044275;28;20036;-64
2022/10/24 04:10:39;;;;;;;19.73;6.90;;;14.40;99.90;;;;;;5073477;28;20127;-64
2022/10/24 04:13:05;;;;;;;30.35;7.88;;;14.30;99.90;;;;;;5037654;28;20034;-64
2022/10/24 04:15:30;;;;;;;33.20;7.72;;;14.30;99.90;;;;;;5041579;28;20496;-65
2022/10/24 04:17:56;;;;;;;27.98;7.50;;;14.30;99.90;;;;;;5035989;28;20112;-64
2022/10/24 04:20:22;;;;;;;27.35;6.72;;;14.30;99.90;;;;;;5046041;28;20508;-64
2022/10/24 04:22:48;;;;;;;22.90;7.20;;;14.30;99.90;;;;;;5038445;28;20041;-64
2022/10/24 04:25:14;;;;;;;27.25;7.18;;;14.30;99.90;;;;;;5041164;28;20080;-63
2022/10/24 04:27:40;;;;;;;25.30;6.60;;;14.20;99.90;;;;;;5039217;28;20124;-65
2022/10/24 04:30:07;;;;;;;29.15;6.90;;;14.20;99.90;;;;;;5032371;28;20544;-64
2022/10/24 04:32:33;;;;;;;29.30;6.90;;;14.20;99.90;;;;;;5040850;28;20128;-64
2022/10/24 04:35:00;;;;;;;18.58;6.60;;;14.20;99.90;;;;;;5043550;28;20137;-65
2022/10/24 04:37:26;;;;;;;22.75;6.53;;;14.10;99.90;;;;;;5042560;28;20091;-64
2022/10/24 04:39:53;;;;;;;31.95;7.07;;;14.10;99.90;;;;;;5076883;28;20462;-66
2022/10/24 04:42:20;;;;;;;30.60;7.40;;;14.10;99.90;;;;;;5044880;28;20067;-64
2022/10/24 04:44:45;;;;;;;30.35;6.93;;;14.10;99.90;;;;;;5040045;28;20045;-63
2022/10/24 04:47:11;;;;;;;22.95;6.63;;;14.10;99.90;;;;;;5042815;28;20044;-65
2022/10/24 04:49:37;;;;;;;23.95;6.18;;;14.10;99.90;;;;;;5073623;28;20037;-64
2022/10/24 04:52:02;;;;;;;29.40;6.97;;;14.00;99.90;;;;;;5041189;28;20068;-64
2022/10/24 04:54:28;;;;;;;18.63;6.25;;;14.00;99.90;;;;;;5040110;28;20056;-64
2022/10/24 04:56:53;;;;;;;22.08;7.07;;;14.10;99.90;;;;;;5047122;28;20033;-65
2022/10/24 04:59:19;;;;;;;28.77;6.72;;;14.00;99.90;;;;;;5045421;28;20468;-64
2022/10/24 05:01:45;;;;;;;26.33;6.10;;;14.00;99.90;;;;;;5045675;28;20040;-65
2022/10/24 05:04:11;;;;;;;22.67;5.97;;;14.00;99.90;;;;;;5046842;28;20396;-64
2022/10/24 05:06:37;;;;;;;24.95;7.72;;;14.00;99.90;;;;;;5050328;28;20045;-63
2022/10/24 05:09:03;;;;;;;32.22;5.90;;;14.00;99.90;;;;;;5051156;28;20036;-63
2022/10/24 05:11:29;;;;;;;26.48;6.07;;;14.00;99.90;;;;;;5073736;28;20038;-65
2022/10/24 05:13:54;;;;;;;24.38;6.18;;;14.00;99.90;;;;;;5047441;28;20029;-65
2022/10/24 05:16:20;;;;;;;24.08;6.28;;;13.90;99.90;;;;;;5047978;28;20121;-64
2022/10/24 05:18:46;;;;;;;25.42;5.90;;;13.90;99.90;;;;;;5043644;28;21623;-64
2022/10/24 05:21:11;;;;;;;20.75;5.35;;;13.90;99.90;;;;;;5040955;28;20070;-64
2022/10/24 05:23:37;;;;;;;21.52;5.03;;;13.90;99.90;;;;;;5045486;28;20692;-64
2022/10/24 05:26:03;;;;;;;22.85;5.72;;;13.90;99.90;;;;;;5040100;28;20044;-64
2022/10/24 05:28:28;;;;;;;23.55;5.65;;;13.90;99.90;;;;;;5038427;28;20106;-64
2022/10/24 05:30:54;;;;;;;20.85;5.47;;;13.80;99.90;;;;;;5046307;28;20463;-65
2022/10/24 05:33:19;;;;;;;22.45;5.85;;;13.80;99.90;;;;;;5041191;28;20044;-64
2022/10/24 05:35:45;;;;;;;23.17;5.22;;;13.80;99.90;;;;;;5048660;28;20487;-65
2022/10/24 05:38:11;;;;;;;21.25;5.60;;;13.90;99.90;;;;;;5045682;28;20083;-65
2022/10/24 05:40:36;;;;;;;25.48;5.07;;;13.90;99.90;;;;;;5048504;28;20651;-65
2022/10/24 05:43:02;;;;;;;27.45;5.78;;;14.00;99.90;;;;;;5039311;28;20037;-65
2022/10/24 05:45:27;;;;;;;28.77;4.75;;;14.00;99.90;;;;;;5042461;28;20116;-64
2022/10/24 05:47:53;;;;;;;25.40;4.97;;;14.10;99.90;;;;;;5048672;28;20176;-65
2022/10/24 05:50:19;;;;;;;24.02;5.05;;;14.10;99.90;;;;;;5044801;28;20388;-64
2022/10/24 05:52:44;;;;;;;21.83;4.93;;;14.20;99.90;;;;;;5045186;28;20037;-64
2022/10/24 05:55:10;;;;;;;27.33;5.22;;;14.20;99.90;;;;;;5049172;28;20506;-64
2022/10/24 05:57:37;;;;;;;17.23;4.30;;;14.20;99.90;;;;;;5050739;28;20134;-64
2022/10/24 06:00:07;;;;;;;21.67;4.63;;;14.20;99.90;;;;;;5042828;28;20041;-64
2022/10/24 06:02:33;;;;;;;24.98;4.57;;;14.30;99.90;;;;;;5041553;28;20049;-65
2022/10/24 06:04:59;;;;;;;18.25;4.07;;;14.20;99.90;;;;;;5048657;28;20033;-65
2022/10/24 06:07:24;;;;;;;23.40;4.50;;;14.20;99.90;;;;;;5045678;28;20042;-64
2022/10/24 06:09:50;;;;;;;19.85;4.78;;;14.20;99.90;;;;;;5046728;28;20041;-64
2022/10/24 06:12:16;;;;;;;19.90;4.05;;;14.20;99.90;;;;;;5054214;28;20480;-64
2022/10/24 06:14:43;;;;;;;19.95;5.00;;;14.20;99.90;;;;;;5050746;28;20120;-65
2022/10/24 06:17:10;;;;;;;25.45;6.32;;;14.20;99.90;;;;;;5044185;28;20048;-65
2022/10/24 06:19:37;;;;;;;23.45;5.00;;;14.20;99.90;;;;;;5049649;28;20073;-65
2022/10/24 06:22:04;;;;;;;28.17;4.93;;;14.20;99.90;;;;;;5048353;28;20525;-64
2022/10/24 06:24:30;;;;;;;21.58;4.68;;;14.20;99.90;;;;;;5044215;28;20072;-65
2022/10/24 06:26:55;;;;;;;19.98;4.50;;;14.10;99.90;;;;;;5049203;28;20068;-64
2022/10/24 06:29:21;;;;;;;15.30;4.90;;;14.20;99.90;;;;;;5039597;28;20099;-64
2022/10/24 06:31:47;;;;;;;24.58;4.90;;;14.10;99.90;;;;;;5046649;28;20639;-65
2022/10/24 06:34:12;;;;;;;37.30;6.38;;;14.10;99.90;;;;;;5047438;28;20308;-65
2022/10/24 06:36:38;;;;;;;18.30;4.88;;;14.00;99.90;;;;;;5050711;28;20040;-66
2022/10/24 06:39:03;;;;;;;27.40;5.18;;;14.00;99.90;;;;;;5044524;28;20132;-65
2022/10/24 06:41:29;;;;;;;22.88;5.05;;;14.00;99.90;;;;;;5046928;28;20041;-64
2022/10/24 06:43:55;;;;;;;19.30;5.18;;;14.10;99.90;;;;;;5049052;28;20036;-65
2022/10/24 06:46:22;;;;;;;19.13;4.88;;;14.10;99.90;;;;;;5048715;28;20083;-64
2022/10/24 06:48:56;;;;;;;26.20;4.75;;;14.10;99.90;;;;;;5044604;28;20380;-66
2022/10/24 06:51:22;;;;;;;20.98;5.38;;;14.20;99.90;;;;;;5043083;28;20048;-66
2022/10/24 06:53:48;;;;;;;27.67;4.90;;;14.30;99.90;;;;;;5044360;28;20073;-67
2022/10/24 06:56:14;;;;;;;16.83;4.50;;;14.30;99.90;;;;;;5047331;28;20447;-65
2022/10/24 06:58:40;;;;;;;18.73;4.22;;;14.40;99.90;;;;;;5043290;28;20040;-65
2022/10/24 07:01:18;;;;;;;21.23;4.22;;;14.40;99.90;;;;;;5071807;28;20472;-65
2022/10/24 07:03:44;;;;;;;26.60;5.10;;;14.50;99.90;;;;;;5049398;28;20041;-64
2022/10/24 07:06:15;;;;;;;16.70;4.43;;;14.60;99.90;;;;;;5077646;28;20032;-66
2022/10/24 07:08:41;;;;;;;17.73;4.22;;;14.70;99.90;;;;;;5042758;28;20029;-67
2022/10/24 07:11:06;;;;;;;21.90;4.43;;;14.80;99.90;;;;;;5047774;28;20123;-65
2022/10/24 07:13:32;;;;;;;20.33;4.38;;;14.80;99.90;;;;;;5048514;28;20124;-66
2022/10/24 07:15:58;;;;;;;21.02;4.10;;;14.80;99.90;;;;;;5048600;28;20095;-65
2022/10/24 07:18:23;;;;;;;29.33;5.30;;;14.90;99.90;;;;;;5041064;28;20439;-65
2022/10/24 07:20:49;;;;;;;27.17;4.47;;;14.90;99.90;;;;;;5047082;28;20102;-65
2022/10/24 07:23:15;;;;;;;27.13;5.43;;;14.90;99.90;;;;;;5043557;28;20119;-65
2022/10/24 07:25:41;;;;;;;23.52;4.75;;;15.00;99.90;;;;;;5044819;28;20091;-67
2022/10/24 07:28:08;;;;;;;17.40;4.40;;;15.00;99.90;;;;;;5045676;28;20480;-67
2022/10/24 07:30:33;;;;;;;20.55;4.45;;;14.90;99.90;;;;;;5047541;28;20044;-66
2022/10/24 07:32:59;;;;;;;22.70;4.45;;;14.90;99.90;;;;;;5071426;28;20391;-67
2022/10/24 07:35:25;;;;;;;20.90;4.03;;;15.00;99.90;;;;;;5047444;28;20037;-66
2022/10/24 07:37:52;;;;;;;17.27;4.10;;;15.00;99.90;;;;;;5075297;28;20122;-65
2022/10/24 07:40:18;;;;;;;18.00;4.40;;;14.90;99.90;;;;;;5036330;28;20377;-66
2022/10/24 07:42:44;;;;;;;25.40;4.50;;;15.00;99.90;;;;;;5042607;28;20622;-66
2022/10/24 07:45:10;;;;;;;22.63;4.15;;;15.00;99.90;;;;;;5046041;28;20155;-65
2022/10/24 07:47:36;;;;;;;23.27;4.30;;;15.00;99.90;;;;;;5050962;28;20174;-65
2022/10/24 07:50:02;;;;;;;20.50;4.68;;;15.10;99.90;;;;;;5041773;28;20152;-66
2022/10/24 07:52:28;;;;;;;22.77;4.15;;;15.10;99.90;;;;;;5039861;28;20753;-66
2022/10/24 07:54:54;;;;;;;20.83;4.45;;;15.10;99.90;;;;;;5045846;28;20116;-65
2022/10/24 07:57:21;;;;;;;23.95;4.55;;;15.10;99.90;;;;;;5043565;28;20037;-67
2022/10/24 07:59:46;;;;;;;24.95;5.03;;;15.20;99.90;;;;;;5040793;28;20090;-68
2022/10/24 08:02:13;;;;;;;22.70;4.15;;;15.20;99.90;;;;;;5041380;28;20049;-67
2022/10/24 08:04:39;;;;;;;26.23;3.92;;;15.30;99.90;;;;;;5047313;28;20052;-67
2022/10/24 08:07:12;;;;;;;27.08;5.07;;;15.30;99.90;;;;;;5042256;28;20488;-67
2022/10/24 08:09:46;;;;;;;21.20;3.78;;;15.30;99.90;;;;;;5077402;28;20045;-66
2022/10/24 08:12:12;;;;;;;25.55;3.88;;;15.40;99.90;;;;;;5045500;28;20094;-66
2022/10/24 08:14:39;;;;;;;20.55;4.22;;;15.40;99.90;;;;;;5049745;28;20392;-65
2022/10/24 08:17:05;;;;;;;25.02;3.70;;;15.40;99.90;;;;;;5049658;28;20110;-67
2022/10/24 08:19:31;;;;;;;21.52;4.00;;;15.50;99.90;;;;;;5048068;28;20045;-66
2022/10/24 08:21:58;;;;;;;29.65;4.22;;;15.50;99.90;;;;;;5046121;28;20044;-67
2022/10/24 08:24:24;;;;;;;25.13;4.10;;;15.50;99.90;;;;;;5046484;28;20037;-67
2022/10/24 08:26:49;;;;;;;25.75;3.80;;;15.60;99.90;;;;;;5046117;28;20404;-66
2022/10/24 08:29:21;;;;;;;25.45;4.13;;;15.60;99.90;;;;;;5044270;28;20403;-67
2022/10/24 08:31:49;;;;;;;22.40;3.53;;;15.70;99.90;;;;;;5044521;28;20045;-65
2022/10/24 08:34:16;;;;;;;29.27;3.90;;;15.80;99.90;;;;;;5020876;28;20040;-66
2022/10/24 08:36:42;;;;;;;25.52;4.18;;;15.80;99.90;;;;;;5045884;28;20059;-67
2022/10/24 08:39:08;;;;;;;36.67;4.45;;;15.90;99.90;;;;;;5044640;28;20045;-66
2022/10/24 08:41:46;;;;;;;29.45;4.88;;;16.10;99.90;;;;;;5044101;28;20037;-64
2022/10/24 08:44:28;;;;;;;28.13;3.35;;;16.10;99.90;;;;;;5035867;28;20059;-66
2022/10/24 08:47:04;;;;;;;27.15;3.60;;;16.20;99.90;;;;;;5033467;28;20045;-67
2022/10/24 08:49:39;;;;;;;23.38;3.58;;;16.20;99.90;;;;;;5047594;28;20041;-65
2022/10/24 08:52:19;;;;;;;21.98;3.35;;;16.20;99.90;;;;;;5049045;28;20033;-65
2022/10/24 08:54:46;;;;;;;25.30;4.20;;;16.20;99.90;;;;;;5050623;28;20045;-66
2022/10/24 08:57:21;;;;;;;24.38;3.92;;;16.20;99.90;;;;;;5051730;28;20095;-65
2022/10/24 08:59:47;;;;;;;30.05;3.80;;;16.20;99.90;;;;;;5050953;28;20044;-65
2022/10/24 09:02:20;;;;;;;18.92;3.28;;;16.20;99.90;;;;;;5047179;28;20567;-66
2022/10/24 09:04:57;;;;;;;26.70;4.07;;;16.10;99.90;;;;;;5074363;28;20102;-66
2022/10/24 09:07:23;;;;;;;22.88;3.83;;;16.10;99.90;;;;;;5048948;28;20076;-68
2022/10/24 09:09:55;;;;;;;26.90;4.00;;;16.00;99.90;;;;;;5048098;28;20091;-67
2022/10/24 09:12:21;;;;;;;;;;;16.00;99.90;;;;;;5043756;28;20056;-66
2022/10/24 09:14:54;;;;;;;28.25;3.63;;;16.00;99.90;;;;;;5044910;28;19916;-65
2022/10/24 09:17:31;;;;;;;24.15;4.20;;;16.00;99.90;;;;;;5044340;28;20133;-66
2022/10/24 09:20:02;;;;;;;23.65;4.30;;;16.10;99.90;;;;;;5042924;28;20053;-65
2022/10/24 09:22:32;;;;;;;31.45;4.68;;;16.10;99.90;;;;;;5045600;28;20056;-64
2022/10/24 09:25:02;;;;;;;19.38;3.92;;;16.10;99.90;;;;;;5072504;28;20053;-65
2022/10/24 09:27:39;;;;;;;26.15;4.90;;;16.10;99.90;;;;;;5076562;28;20052;-65
2022/10/24 09:30:13;;;;;;;26.45;4.30;;;16.20;99.90;;;;;;5046132;28;20476;-65
2022/10/24 09:32:41;;;;;;;20.08;3.97;;;16.20;99.90;;;;;;5044478;28;20093;-68
2022/10/24 09:35:22;;;;;;;28.38;4.47;;;16.20;99.90;;;;;;5040839;28;20052;-65
2022/10/24 09:37:56;;;;;;;20.80;4.35;;;16.40;99.90;;;;;;5045175;28;20037;-68
2022/10/24 09:40:21;;;;;;;26.67;4.95;;;16.30;99.90;;;;;;5038640;28;20037;-67
2022/10/24 09:42:57;;;;;;;18.38;3.80;;;16.30;99.90;;;;;;5042246;28;20048;-66
2022/10/24 09:45:41;;;;;;;19.13;4.63;;;16.40;99.90;;;;;;5040638;28;20044;-65
2022/10/24 09:48:18;;;;;;;38.63;4.47;;;16.40;99.90;;;;;;5041878;28;20057;-65
2022/10/24 09:50:46;;;;;;;28.85;4.60;;;16.50;99.90;;;;;;5034375;28;20036;-66
2022/10/24 09:53:35;;;;;;;19.40;4.30;;;16.60;99.90;;;;;;5040548;28;20608;-66
2022/10/24 09:56:09;;;;;;;24.45;4.32;;;16.60;99.90;;;;;;5035300;28;20048;-65
2022/10/24 09:58:36;;;;;;;22.98;3.90;;;16.50;99.90;;;;;;5044263;28;20052;-65
2022/10/24 10:01:24;;;;;;;24.02;4.13;;;16.50;99.90;;;;;;5037268;28;20041;-67
2022/10/24 10:04:04;;;;;;;23.17;4.28;;;16.60;99.90;;;;;;5069390;28;20563;-64
2022/10/24 10:06:32;;;;;;;22.45;3.60;;;16.50;99.90;;;;;;5034355;28;20045;-66
2022/10/24 10:08:58;;;;;;;29.40;4.10;;;16.50;99.90;;;;;;5039076;28;20041;-66
2022/10/24 10:11:29;;;;;;;21.70;3.80;;;16.50;99.90;;;;;;5039116;28;20045;-68
2022/10/24 10:13:58;;;;;;;25.15;3.30;;;16.60;99.90;;;;;;5039363;28;20103;-65
2022/10/24 10:16:28;;;;;;;21.67;4.15;;;16.50;99.90;;;;;;5036145;28;20061;-63
2022/10/24 10:19:13;;;;;;;19.00;3.42;;;16.30;99.90;;;;;;5047289;28;20614;-65
2022/10/24 10:21:54;;;;;;;13.82;3.67;;;16.30;99.90;;;;;;5039021;28;20491;-66
2022/10/24 10:24:37;;;;;;;25.30;3.80;;;16.40;99.90;;;;;;5038820;28;20042;-64
2022/10/24 10:27:25;;;;;;;16.70;4.28;;;16.50;99.90;;;;;;5047672;28;20045;-66
2022/10/24 10:30:13;;;;;;;23.05;4.05;;;16.60;99.90;;;;;;5026704;28;20096;-67
2022/10/24 10:33:07;;;;;;;19.90;4.10;;;16.60;99.90;;;;;;5035915;28;20033;-65
2022/10/24 10:35:52;;;;;;;18.45;3.55;;;16.60;99.90;;;;;;5044284;28;20060;-64
2022/10/24 10:39:02;;;;;;;23.50;4.32;;;16.50;99.90;;;;;;5038741;28;20045;-67
2022/10/24 10:41:52;;;;;;;22.73;3.85;;;16.40;99.90;;;;;;5074416;28;20040;-66
2022/10/24 10:44:58;;;;;;;23.20;4.22;;;16.40;99.90;;;;;;5033258;28;20053;-66
2022/10/24 10:47:34;;;;;;;23.23;4.40;;;16.40;99.90;;;;;;5046607;28;20037;-66
2022/10/24 10:50:07;;;;;;;24.80;4.53;;;16.40;99.90;;;;;;5070160;28;20041;-63
2022/10/24 10:52:47;;;;;;;18.48;3.45;;;16.40;99.90;;;;;;5049140;28;20057;-65
2022/10/24 10:55:40;;;;;;;18.85;3.75;;;16.40;99.90;;;;;;5044042;28;20400;-65
2022/10/24 10:58:24;;;;;;;28.73;4.20;;;16.40;99.90;;;;;;5048580;28;20085;-63
2022/10/24 11:01:18;;;;;;;18.65;3.90;;;16.40;99.90;;;;;;5040802;28;20041;-64
2022/10/24 11:03:58;;;;;;;29.52;4.10;;;16.40;99.90;;;;;;5072523;28;20067;-66
2022/10/24 11:06:42;;;;;;;22.90;3.60;;;16.50;99.90;;;;;;5041557;28;20076;-66
2022/10/24 11:09:28;;;;;;;19.17;3.30;;;16.50;99.90;;;;;;5033233;28;20075;-67
2022/10/24 11:12:01;;;;;;;17.23;3.50;;;16.50;99.90;;;;;;5038834;28;20033;-70
2022/10/24 11:14:47;;;;;;;18.80;3.20;;;16.60;99.90;;;;;;5037482;28;20754;-67
2022/10/24 11:17:26;;;;;;;15.93;3.63;;;16.60;99.90;;;;;;5069141;28;20049;-66
2022/10/24 11:20:20;;;;;;;16.30;3.42;;;16.40;99.90;;;;;;5071156;28;20054;-67
2022/10/24 11:22:50;;;;;;;17.50;3.22;;;16.40;99.90;;;;;;5038520;28;20401;-66
2022/10/24 11:25:19;;;;;;;22.05;3.20;;;16.30;99.90;;;;;;5034205;28;20041;-68
2022/10/24 11:28:15;;;;;;;12.70;3.00;;;16.50;99.90;;;;;;5040103;28;20095;-66
2022/10/24 11:30:54;;;;;;;22.10;3.25;;;16.60;99.90;;;;;;5037975;28;20126;-65
2022/10/24 11:33:24;;;;;;;16.77;3.35;;;16.60;99.90;;;;;;5023606;28;20436;-65
2022/10/24 11:36:02;;;;;;;26.50;3.65;;;16.70;99.90;;;;;;5068795;28;20040;-63
2022/10/24 11:38:29;;;;;;;22.33;3.63;;;16.70;99.90;;;;;;5040247;28;20125;-64
2022/10/24 11:41:02;;;;;;;26.77;4.65;;;16.60;99.90;;;;;;5032903;28;20075;-65
2022/10/24 11:43:39;;;;;;;18.08;3.45;;;16.80;99.90;;;;;;5032020;28;20102;-65
2022/10/24 11:46:16;;;;;;;28.17;4.47;;;16.70;99.90;;;;;;5033798;28;20049;-66
2022/10/24 11:48:52;;;;;;;20.75;4.47;;;16.60;99.90;;;;;;5034307;28;20037;-66
2022/10/24 11:51:33;;;;;;;23.23;3.92;;;16.60;99.90;;;;;;5037365;28;20120;-65
2022/10/24 11:54:04;;;;;;;20.05;3.95;;;16.70;99.90;;;;;;5038932;28;20041;-66
2022/10/24 11:56:48;;;;;;;18.95;4.03;;;16.70;99.90;;;;;;5038578;28;20129;-65
2022/10/24 11:59:24;;;;;;;23.35;4.05;;;16.50;99.90;;;;;;5039717;28;20047;-64
2022/10/24 12:02:08;;;;;;;19.15;4.18;;;16.50;99.90;;;;;;5033379;28;20547;-65
2022/10/24 12:04:46;;;;;;;18.92;3.47;;;16.40;99.90;;;;;;5032521;28;20034;-67
2022/10/24 12:07:49;;;;;;;26.17;4.03;;;16.40;99.90;;;;;;5023485;28;20044;-63
2022/10/24 12:10:52;;;;;;;23.95;3.78;;;16.40;99.90;;;;;;5038935;28;20047;-65
2022/10/24 12:13:17;;;;;;;;;;;16.30;99.90;;;;;;5064547;28;20403;-65
2022/10/24 12:16:03;;;;;;;18.40;3.60;;;16.20;99.90;;;;;;5028437;28;19925;-63
2022/10/24 12:18:42;;;;;;;22.23;4.15;;;16.20;99.90;;;;;;5039684;28;20051;-67
2022/10/24 12:21:12;;;;;;;25.80;4.00;;;16.20;99.90;;;;;;5033269;28;20046;-66
2022/10/24 12:23:40;;;;;;;21.75;4.95;;;16.30;99.90;;;;;;5033805;28;20045;-68
2022/10/24 12:26:17;;;;;;;18.67;4.00;;;16.50;99.90;;;;;;5040530;28;20132;-69
2022/10/24 12:28:56;;;;;;;24.60;3.85;;;16.50;99.90;;;;;;5034249;28;20040;-64
2022/10/24 12:31:28;;;;;;;18.33;3.70;;;16.50;99.90;;;;;;5036780;28;20087;-63
2022/10/24 12:34:15;;;;;;;22.27;4.15;;;16.40;99.90;;;;;;5041810;28;20037;-63
2022/10/24 12:37:29;;;;;;;19.92;4.03;;;16.20;99.90;;;;;;5038257;28;20045;-63
2022/10/24 12:39:55;;;;;;;24.23;3.67;;;16.10;99.90;;;;;;5037291;28;20132;-67
2022/10/24 12:42:21;;;;;;;23.65;3.80;;;15.90;99.90;;;;;;5034203;28;21950;-66
2022/10/24 12:44:49;;;;;;;15.85;3.90;;;15.90;99.90;;;;;;5065142;28;20037;-67
2022/10/24 12:47:24;;;;;;;18.58;3.72;;;15.90;99.90;;;;;;5030535;28;20153;-66
2022/10/24 12:49:50;;;;;;;15.43;3.95;;;16.00;99.90;;;;;;5034818;28;20037;-68
2022/10/24 12:52:36;;;;;;;15.65;3.83;;;16.10;99.90;;;;;;5067495;28;20094;-67
2022/10/24 12:55:01;;;;;;;21.05;3.97;;;16.20;99.90;;;;;;5023943;28;20050;-65
2022/10/24 12:57:34;;;;;;;19.48;3.25;;;16.30;99.90;;;;;;5032142;28;20060;-63
2022/10/24 13:00:01;;;;;;;15.95;3.25;;;16.20;99.90;;;;;;5071540;28;20049;-64